createdAt,value
2022-10-01T00:01:16.363Z,11.62
2022-10-01T00:03:43.808Z,11.59
2022-10-01T00:06:19.036Z,11.57
2022-10-01T00:08:49.259Z,11.54
2022-10-01T00:11:19.064Z,11.51
2022-10-01T00:13:46.443Z,11.50
2022-10-01T00:16:16.485Z,11.45
2022-10-01T00:18:45.611Z,11.44
2022-10-01T00:21:15.358Z,11.46
2022-10-01T00:23:42.434Z,11.44
2022-10-01T00:26:21.027Z,11.44
2022-10-01T00:28:52.640Z,11.38
2022-10-01T00:31:19.384Z,11.38
2022-10-01T00:33:48.257Z,11.40
2022-10-01T00:36:14.861Z,11.35
2022-10-01T00:38:41.569Z,11.33
2022-10-01T00:41:09.434Z,11.30
2022-10-01T00:43:40.089Z,11.29
2022-10-01T00:46:18.081Z,11.24
2022-10-01T00:49:00.270Z,11.24
2022-10-01T00:51:30.569Z,11.20
2022-10-01T00:54:05.652Z,11.19
2022-10-01T00:56:32.884Z,11.17
2022-10-01T00:59:00.148Z,11.16
2022-10-01T01:01:26.757Z,11.17
2022-10-01T01:03:53.421Z,11.16
2022-10-01T01:06:20.101Z,11.14
2022-10-01T01:08:53.450Z,11.14
2022-10-01T01:11:35.097Z,11.09
2022-10-01T01:14:15.026Z,11.07
2022-10-01T01:17:11.586Z,11.06
2022-10-01T01:20:09.637Z,11.00
2022-10-01T01:22:42.212Z,10.99
2022-10-01T01:25:18.120Z,10.98
2022-10-01T01:28:06.693Z,10.98
2022-10-01T01:30:34.431Z,10.95
2022-10-01T01:33:05.959Z,10.97
2022-10-01T01:35:39.505Z,10.97
2022-10-01T01:38:14.177Z,10.99
2022-10-01T01:40:44.555Z,10.97
2022-10-01T01:43:19.484Z,10.98
2022-10-01T01:45:49.844Z,11.01
2022-10-01T01:48:16.519Z,11.01
2022-10-01T01:51:18.068Z,11.01
2022-10-01T01:53:44.788Z,11.00
2022-10-01T01:56:11.621Z,11.02
2022-10-01T01:58:39.210Z,11.01
2022-10-01T02:01:05.775Z,11.01
2022-10-01T02:03:34.401Z,11.01
2022-10-01T02:06:30.295Z,11.01
2022-10-01T02:09:05.993Z,10.96
2022-10-01T02:11:38.641Z,11.00
2022-10-01T02:14:28.586Z,10.98
2022-10-01T02:17:03.654Z,11.01
2022-10-01T02:20:12.705Z,10.98
2022-10-01T02:22:43.733Z,10.98
2022-10-01T02:25:13.083Z,10.97
2022-10-01T02:27:56.185Z,10.97
2022-10-01T02:30:22.843Z,11.00
2022-10-01T02:32:50.662Z,10.99
2022-10-01T02:35:19.365Z,10.98
2022-10-01T02:37:51.499Z,11.01
2022-10-01T02:40:22.344Z,11.03
2022-10-01T02:42:55.063Z,10.98
2022-10-01T02:45:27.504Z,10.98
2022-10-01T02:47:59.891Z,10.98
2022-10-01T02:50:34.744Z,11.00
2022-10-01T02:53:08.810Z,11.00
2022-10-01T02:55:38.955Z,10.99
2022-10-01T02:58:07.159Z,11.03
2022-10-01T03:00:33.773Z,10.99
2022-10-01T03:03:00.435Z,11.02
2022-10-01T03:05:27.072Z,11.06
2022-10-01T03:07:56.017Z,11.05
2022-10-01T03:10:22.575Z,11.04
2022-10-01T03:12:50.940Z,11.05
2022-10-01T03:15:19.331Z,11.08
2022-10-01T03:17:46.842Z,11.10
2022-10-01T03:20:13.452Z,11.10
2022-10-01T03:22:40.029Z,11.11
2022-10-01T03:25:06.901Z,11.12
2022-10-01T03:27:33.623Z,11.11
2022-10-01T03:30:00.204Z,11.10
2022-10-01T03:32:26.757Z,11.11
2022-10-01T03:34:53.316Z,11.11
2022-10-01T03:37:19.839Z,11.09
2022-10-01T03:39:47.684Z,11.09
2022-10-01T03:42:15.179Z,11.09
2022-10-01T03:44:41.719Z,11.09
2022-10-01T03:47:10.027Z,11.07
2022-10-01T03:49:37.225Z,11.12
2022-10-01T03:52:06.612Z,11.13
2022-10-01T03:54:33.364Z,11.12
2022-10-01T03:56:59.901Z,11.13
2022-10-01T03:59:27.458Z,11.13
2022-10-01T04:01:54.286Z,11.14
2022-10-01T04:04:20.947Z,11.16
2022-10-01T04:06:47.584Z,11.16
2022-10-01T04:09:14.133Z,11.18
2022-10-01T04:11:40.665Z,11.20
2022-10-01T04:14:07.254Z,11.17
2022-10-01T04:16:37.065Z,11.17
2022-10-01T04:19:04.459Z,11.20
2022-10-01T04:21:31.216Z,11.22
2022-10-01T04:23:58.167Z,11.23
2022-10-01T04:26:25.182Z,11.27
2022-10-01T04:28:51.755Z,11.27
2022-10-01T04:31:27.228Z,11.29
2022-10-01T04:33:56.093Z,11.29
2022-10-01T04:36:24.338Z,11.29
2022-10-01T04:39:00.938Z,11.29
2022-10-01T04:41:30.646Z,11.32
2022-10-01T04:43:59.694Z,11.36
2022-10-01T04:46:26.448Z,11.40
2022-10-01T04:48:53.082Z,11.42
2022-10-01T04:51:19.652Z,11.43
2022-10-01T04:53:46.257Z,11.48
2022-10-01T04:56:12.763Z,11.50
2022-10-01T04:58:39.362Z,11.55
2022-10-01T05:01:06.073Z,11.58
2022-10-01T05:03:32.745Z,11.61
2022-10-01T05:05:59.311Z,11.66
2022-10-01T05:08:25.832Z,11.70
2022-10-01T05:10:53.084Z,11.75
2022-10-01T05:13:19.651Z,11.76
2022-10-01T05:15:49.103Z,11.76
2022-10-01T05:18:15.722Z,11.82
2022-10-01T05:20:42.289Z,11.85
2022-10-01T05:23:08.808Z,11.87
2022-10-01T05:25:35.412Z,11.91
2022-10-01T05:28:05.924Z,11.96
2022-10-01T05:30:33.737Z,11.98
2022-10-01T05:33:02.173Z,12.00
2022-10-01T05:35:29.691Z,12.05
2022-10-01T05:37:58.884Z,12.09
2022-10-01T05:40:28.462Z,12.13
2022-10-01T05:42:59.833Z,12.18
2022-10-01T05:45:30.931Z,12.24
2022-10-01T05:47:59.697Z,12.27
2022-10-01T05:50:27.081Z,12.31
2022-10-01T05:52:54.667Z,12.34
2022-10-01T05:55:22.363Z,12.33
2022-10-01T05:57:59.358Z,12.36
2022-10-01T06:00:29.479Z,12.39
2022-10-01T06:02:59.925Z,12.41
2022-10-01T06:05:27.625Z,12.41
2022-10-01T06:07:54.277Z,12.45
2022-10-01T06:10:21.742Z,12.46
2022-10-01T06:12:48.643Z,12.48
2022-10-01T06:15:17.246Z,12.51
2022-10-01T06:17:46.848Z,12.51
2022-10-01T06:20:15.767Z,12.55
2022-10-01T06:22:43.418Z,12.56
2022-10-01T06:25:12.153Z,12.55
2022-10-01T06:27:39.210Z,12.62
2022-10-01T06:30:07.042Z,12.64
2022-10-01T06:32:35.146Z,12.72
2022-10-01T06:35:02.848Z,12.71
2022-10-01T06:37:29.790Z,12.78
2022-10-01T06:39:56.493Z,12.82
2022-10-01T06:42:23.221Z,12.84
2022-10-01T06:44:49.788Z,12.86
2022-10-01T06:47:16.313Z,12.91
2022-10-01T06:49:47.344Z,12.95
2022-10-01T06:52:32.888Z,13.00
2022-10-01T06:55:01.245Z,12.96
2022-10-01T06:57:28.557Z,12.96
2022-10-01T06:59:55.743Z,13.04
2022-10-01T07:02:28.195Z,13.12
2022-10-01T07:05:01.600Z,13.13
2022-10-01T07:07:32.724Z,13.15
2022-10-01T07:09:59.320Z,13.17
2022-10-01T07:12:26.714Z,13.25
2022-10-01T07:14:54.547Z,13.28
2022-10-01T07:17:22.058Z,13.32
2022-10-01T07:19:48.666Z,13.35
2022-10-01T07:22:15.233Z,13.21
2022-10-01T07:24:41.930Z,13.24
2022-10-01T07:27:08.910Z,13.34
2022-10-01T07:29:35.501Z,13.35
2022-10-01T07:32:04.071Z,13.26
2022-10-01T07:34:33.547Z,13.38
2022-10-01T07:37:02.221Z,13.49
2022-10-01T07:39:28.910Z,13.58
2022-10-01T07:41:56.020Z,13.59
2022-10-01T07:44:22.610Z,13.62
2022-10-01T07:46:49.233Z,13.59
2022-10-01T07:49:16.858Z,13.68
2022-10-01T07:51:43.940Z,13.47
2022-10-01T07:54:11.028Z,13.71
2022-10-01T07:56:38.172Z,13.86
2022-10-01T07:59:04.941Z,13.68
2022-10-01T08:01:32.552Z,13.79
2022-10-01T08:04:02.489Z,13.90
2022-10-01T08:06:29.659Z,13.97
2022-10-01T08:08:56.290Z,14.03
2022-10-01T08:11:24.726Z,13.97
2022-10-01T08:13:51.383Z,13.75
2022-10-01T08:16:18.281Z,14.05
2022-10-01T08:18:44.907Z,14.11
2022-10-01T08:21:11.563Z,14.19
2022-10-01T08:23:38.090Z,14.28
2022-10-01T08:26:08.048Z,14.14
2022-10-01T08:28:35.376Z,14.27
2022-10-01T08:31:09.945Z,14.36
2022-10-01T08:33:38.360Z,14.42
2022-10-01T08:36:09.597Z,14.39
2022-10-01T08:38:36.831Z,14.45
2022-10-01T08:41:23.391Z,14.50
2022-10-01T08:43:51.831Z,14.43
2022-10-01T08:46:21.801Z,14.48
2022-10-01T08:49:08.694Z,14.25
2022-10-01T08:51:50.419Z,14.28
2022-10-01T08:54:34.276Z,13.78
2022-10-01T08:57:04.753Z,14.26
2022-10-01T08:59:43.657Z,14.28
2022-10-01T09:02:28.492Z,14.12
2022-10-01T09:05:01.468Z,14.11
2022-10-01T09:07:59.602Z,14.01
2022-10-01T09:10:47.733Z,13.88
2022-10-01T09:13:32.608Z,14.25
2022-10-01T09:16:13.755Z,14.31
2022-10-01T09:19:20.226Z,13.50
2022-10-01T09:22:02.088Z,13.95
2022-10-01T09:24:54.991Z,14.12
2022-10-01T09:27:25.868Z,13.79
2022-10-01T09:30:00.778Z,14.04
2022-10-01T09:32:33.394Z,13.85
2022-10-01T09:35:07.711Z,14.34
2022-10-01T09:37:58.011Z,14.39
2022-10-01T09:40:36.003Z,14.46
2022-10-01T09:43:08.579Z,14.20
2022-10-01T09:45:37.085Z,14.42
2022-10-01T09:48:37.532Z,14.28
2022-10-01T09:51:17.854Z,14.40
2022-10-01T09:54:06.482Z,14.18
2022-10-01T09:56:56.502Z,14.21
2022-10-01T09:59:31.328Z,14.14
2022-10-01T10:02:02.081Z,14.29
2022-10-01T10:04:28.863Z,14.58
2022-10-01T10:07:05.150Z,14.21
2022-10-01T10:09:34.990Z,14.63
2022-10-01T10:12:04.581Z,14.62
2022-10-01T10:14:40.771Z,14.70
2022-10-01T10:17:13.381Z,14.71
2022-10-01T10:19:41.207Z,14.40
2022-10-01T10:22:19.430Z,14.29
2022-10-01T10:24:47.202Z,14.39
2022-10-01T10:27:34.004Z,14.29
2022-10-01T10:30:14.772Z,14.45
2022-10-01T10:32:42.876Z,14.30
2022-10-01T10:35:15.407Z,14.01
2022-10-01T10:37:48.506Z,14.34
2022-10-01T10:40:29.332Z,14.33
2022-10-01T10:42:59.060Z,14.26
2022-10-01T10:45:38.092Z,14.38
2022-10-01T10:48:12.670Z,14.36
2022-10-01T10:50:42.897Z,14.31
2022-10-01T10:53:22.294Z,14.30
2022-10-01T10:55:58.285Z,14.30
2022-10-01T10:58:27.020Z,14.36
2022-10-01T11:00:57.467Z,14.43
2022-10-01T11:03:27.916Z,14.35
2022-10-01T11:06:00.037Z,14.40
2022-10-01T11:08:30.824Z,14.39
2022-10-01T11:11:12.994Z,14.41
2022-10-01T11:14:28.817Z,14.41
2022-10-01T11:17:36.106Z,14.40
2022-10-01T11:20:22.727Z,14.46
2022-10-01T11:23:11.200Z,14.29
2022-10-01T11:25:48.054Z,14.31
2022-10-01T11:28:20.760Z,14.20
2022-10-01T11:31:08.435Z,14.01
2022-10-01T11:33:45.104Z,14.24
2022-10-01T11:36:33.481Z,14.22
2022-10-01T11:39:17.869Z,14.20
2022-10-01T11:41:52.813Z,14.24
2022-10-01T11:44:23.908Z,14.14
2022-10-01T11:46:59.277Z,14.10
2022-10-01T11:49:38.617Z,14.09
2022-10-01T11:52:32.644Z,14.00
2022-10-01T11:55:36.627Z,13.89
2022-10-01T11:58:40.736Z,14.01
2022-10-01T12:01:14.223Z,14.05
2022-10-01T12:04:02.181Z,14.04
2022-10-01T12:06:59.760Z,14.03
2022-10-01T12:09:59.669Z,14.16
2022-10-01T12:12:38.197Z,14.17
2022-10-01T12:15:09.906Z,13.66
2022-10-01T12:17:52.503Z,13.60
2022-10-01T12:20:48.487Z,12.97
2022-10-01T12:23:20.000Z,13.09
2022-10-01T12:26:17.335Z,12.73
2022-10-01T12:29:00.369Z,12.72
2022-10-01T12:31:27.408Z,12.24
2022-10-01T12:34:17.276Z,12.31
2022-10-01T12:36:49.917Z,12.24
2022-10-01T12:39:37.341Z,12.23
2022-10-01T12:42:34.221Z,12.35
2022-10-01T12:45:22.007Z,12.20
2022-10-01T12:48:16.476Z,12.13
2022-10-01T12:50:43.000Z,12.32
2022-10-01T12:53:17.862Z,12.28
2022-10-01T12:56:16.152Z,12.17
2022-10-01T12:58:54.482Z,12.27
2022-10-01T13:01:24.175Z,12.25
2022-10-01T13:04:20.085Z,12.16
2022-10-01T13:07:42.656Z,12.16
2022-10-01T13:10:34.961Z,12.18
2022-10-01T13:13:08.866Z,12.22
2022-10-01T13:15:42.220Z,12.28
2022-10-01T13:18:29.374Z,12.39
2022-10-01T13:21:21.769Z,12.30
2022-10-01T13:24:16.336Z,12.29
2022-10-01T13:26:55.971Z,12.34
2022-10-01T13:29:29.020Z,12.39
2022-10-01T13:31:58.869Z,12.41
2022-10-01T13:34:43.136Z,12.35
2022-10-01T13:37:16.774Z,12.37
2022-10-01T13:39:47.452Z,12.44
2022-10-01T13:42:22.969Z,12.47
2022-10-01T13:44:59.891Z,12.41
2022-10-01T13:47:27.237Z,12.38
2022-10-01T13:50:27.023Z,12.37
2022-10-01T13:53:18.073Z,12.30
2022-10-01T13:55:50.683Z,12.38
2022-10-01T13:58:35.499Z,12.27
2022-10-01T14:01:05.364Z,12.14
2022-10-01T14:03:53.861Z,12.28
2022-10-01T14:06:36.194Z,12.33
2022-10-01T14:09:19.503Z,12.39
2022-10-01T14:12:10.537Z,12.39
2022-10-01T14:14:59.141Z,12.47
2022-10-01T14:17:29.995Z,12.54
2022-10-01T14:19:58.117Z,12.52
2022-10-01T14:23:01.690Z,12.65
2022-10-01T14:25:53.923Z,12.58
2022-10-01T14:28:27.064Z,12.57
2022-10-01T14:31:22.106Z,12.50
2022-10-01T14:34:21.591Z,12.48
2022-10-01T14:36:53.611Z,12.43
2022-10-01T14:39:30.485Z,12.47
2022-10-01T14:41:58.225Z,12.56
2022-10-01T14:44:31.644Z,12.62
2022-10-01T14:47:00.009Z,12.55
2022-10-01T14:49:35.585Z,12.69
2022-10-01T14:52:16.728Z,12.74
2022-10-01T14:54:53.119Z,12.77
2022-10-01T14:57:41.899Z,12.84
2022-10-01T15:00:15.586Z,12.86
2022-10-01T15:02:49.334Z,12.93
2022-10-01T15:05:29.039Z,12.90
2022-10-01T15:07:55.854Z,12.92
2022-10-01T15:10:26.886Z,12.94
2022-10-01T15:12:55.114Z,12.95
2022-10-01T15:15:31.179Z,12.98
2022-10-01T15:17:58.139Z,13.02
2022-10-01T15:20:24.801Z,13.02
2022-10-01T15:23:01.032Z,13.07
2022-10-01T15:25:31.496Z,13.12
2022-10-01T15:27:58.103Z,13.14
2022-10-01T15:30:27.527Z,13.17
2022-10-01T15:32:54.724Z,13.20
2022-10-01T15:35:23.576Z,13.20
2022-10-01T15:37:51.550Z,13.19
2022-10-01T15:40:26.525Z,13.20
2022-10-01T15:43:08.757Z,13.19
2022-10-01T15:45:38.112Z,13.18
2022-10-01T15:48:04.785Z,13.21
2022-10-01T15:50:36.632Z,13.20
2022-10-01T15:53:10.290Z,13.19
2022-10-01T15:55:42.453Z,13.25
2022-10-01T15:58:22.827Z,13.28
2022-10-01T16:01:09.452Z,13.27
2022-10-01T16:03:42.364Z,13.24
2022-10-01T16:06:26.188Z,13.25
2022-10-01T16:09:13.120Z,13.34
2022-10-01T16:11:53.494Z,13.37
2022-10-01T16:14:36.982Z,13.38
2022-10-01T16:17:26.875Z,13.35
2022-10-01T16:20:01.981Z,13.39
2022-10-01T16:22:32.976Z,13.45
2022-10-01T16:25:03.452Z,13.45
2022-10-01T16:27:50.621Z,13.39
2022-10-01T16:30:23.578Z,13.41
2022-10-01T16:32:50.263Z,13.48
2022-10-01T16:35:28.359Z,13.48
2022-10-01T16:37:56.844Z,13.35
2022-10-01T16:40:38.978Z,12.81
2022-10-01T16:43:10.055Z,12.28
2022-10-01T16:45:38.746Z,11.95
2022-10-01T16:48:19.889Z,11.88
2022-10-01T16:50:46.732Z,12.09
2022-10-01T16:53:15.986Z,12.03
2022-10-01T16:55:43.382Z,11.94
2022-10-01T16:58:10.822Z,11.75
2022-10-01T17:00:37.803Z,11.76
2022-10-01T17:03:09.007Z,11.67
2022-10-01T17:05:37.114Z,11.69
2022-10-01T17:08:10.925Z,11.67
2022-10-01T17:10:47.026Z,11.62
2022-10-01T17:13:16.236Z,11.58
2022-10-01T17:15:43.277Z,11.58
2022-10-01T17:18:10.245Z,11.51
2022-10-01T17:20:39.179Z,11.52
2022-10-01T17:23:06.230Z,11.54
2022-10-01T17:25:35.868Z,11.45
2022-10-01T17:28:05.276Z,11.50
2022-10-01T17:30:32.734Z,11.50
2022-10-01T17:33:00.687Z,11.45
2022-10-01T17:35:29.524Z,11.52
2022-10-01T17:37:56.672Z,11.55
2022-10-01T17:40:23.284Z,11.55
2022-10-01T17:42:50.130Z,11.59
2022-10-01T17:45:17.049Z,11.63
2022-10-01T17:47:45.183Z,11.58
2022-10-01T17:50:12.736Z,11.64
2022-10-01T17:52:39.468Z,11.62
2022-10-01T17:55:06.487Z,11.53
2022-10-01T17:57:33.525Z,11.61
2022-10-01T18:00:00.367Z,11.63
2022-10-01T18:02:41.633Z,11.66
2022-10-01T18:05:12.225Z,11.63
2022-10-01T18:07:39.027Z,11.54
2022-10-01T18:10:07.120Z,11.58
2022-10-01T18:12:33.849Z,11.46
2022-10-01T18:15:01.342Z,11.41
2022-10-01T18:17:27.971Z,11.62
2022-10-01T18:19:54.800Z,11.46
2022-10-01T18:22:21.499Z,11.45
2022-10-01T18:24:50.626Z,11.54
2022-10-01T18:27:17.421Z,11.49
2022-10-01T18:29:44.072Z,11.45
2022-10-01T18:32:25.947Z,11.63
2022-10-01T18:34:59.414Z,11.62
2022-10-01T18:37:52.276Z,11.60
2022-10-01T18:40:27.354Z,11.63
2022-10-01T18:43:08.568Z,11.73
2022-10-01T18:45:49.752Z,11.72
2022-10-01T18:48:47.586Z,11.78
2022-10-01T18:51:21.536Z,11.82
2022-10-01T18:54:18.877Z,11.80
2022-10-01T18:57:08.236Z,11.82
2022-10-01T19:00:11.205Z,12.01
2022-10-01T19:03:02.443Z,11.99
2022-10-01T19:05:54.004Z,11.99
2022-10-01T19:08:42.127Z,11.99
2022-10-01T19:11:23.274Z,11.98
2022-10-01T19:13:58.042Z,11.98
2022-10-01T19:16:52.404Z,11.83
2022-10-01T19:19:31.314Z,11.79
2022-10-01T19:22:20.470Z,12.02
2022-10-01T19:25:11.090Z,12.04
2022-10-01T19:28:01.554Z,11.91
2022-10-01T19:30:38.450Z,11.89
2022-10-01T19:33:09.451Z,11.83
2022-10-01T19:35:41.627Z,11.75
2022-10-01T19:38:25.046Z,11.81
2022-10-01T19:40:59.247Z,11.78
2022-10-01T19:43:37.590Z,11.90
2022-10-01T19:46:13.011Z,11.89
2022-10-01T19:48:51.038Z,11.91
2022-10-01T19:51:21.805Z,11.80
2022-10-01T19:53:56.409Z,11.90
2022-10-01T19:56:27.005Z,11.84
2022-10-01T19:58:53.808Z,11.87
2022-10-01T20:01:24.156Z,11.89
2022-10-01T20:04:00.634Z,11.89
2022-10-01T20:06:38.889Z,11.78
2022-10-01T20:09:20.548Z,11.97
2022-10-01T20:11:59.322Z,12.00
2022-10-01T20:15:00.612Z,12.00
2022-10-01T20:17:52.268Z,11.85
2022-10-01T20:20:45.126Z,11.81
2022-10-01T20:23:36.867Z,11.74
2022-10-01T20:26:31.552Z,12.05
2022-10-01T20:29:43.288Z,11.93
2022-10-01T20:32:09.794Z,12.04
2022-10-01T20:34:44.374Z,11.95
2022-10-01T20:37:42.177Z,12.01
2022-10-01T20:40:18.671Z,12.02
2022-10-01T20:42:49.800Z,12.11
2022-10-01T20:45:26.635Z,11.70
2022-10-01T20:47:58.751Z,11.65
2022-10-01T20:50:32.413Z,11.80
2022-10-01T20:53:26.834Z,11.75
2022-10-01T20:56:10.015Z,12.03
2022-10-01T20:58:44.548Z,12.13
2022-10-01T21:01:20.590Z,12.05
2022-10-01T21:03:52.005Z,11.93
2022-10-01T21:06:26.520Z,12.00
2022-10-01T21:09:21.369Z,12.07
2022-10-01T21:12:00.084Z,12.26
2022-10-01T21:14:34.413Z,12.36
2022-10-01T21:17:01.058Z,12.38
2022-10-01T21:20:00.207Z,12.04
2022-10-01T21:22:32.359Z,12.13
2022-10-01T21:25:34.436Z,12.35
2022-10-01T21:28:14.678Z,12.15
2022-10-01T21:31:10.611Z,11.87
2022-10-01T21:33:47.062Z,12.05
2022-10-01T21:36:23.014Z,11.95
2022-10-01T21:38:57.085Z,11.97
2022-10-01T21:41:54.195Z,12.20
2022-10-01T21:44:45.248Z,12.02
2022-10-01T21:47:23.302Z,12.13
2022-10-01T21:50:15.424Z,12.00
2022-10-01T21:53:10.400Z,11.91
2022-10-01T21:55:47.953Z,12.04
2022-10-01T21:58:32.923Z,12.24
2022-10-01T22:01:15.929Z,12.39
2022-10-01T22:04:00.829Z,12.13
2022-10-01T22:06:38.639Z,12.16
2022-10-01T22:09:22.459Z,12.08
2022-10-01T22:11:56.349Z,12.35
2022-10-01T22:14:31.452Z,12.22
2022-10-01T22:17:14.621Z,12.56
2022-10-01T22:19:46.671Z,12.31
2022-10-01T22:22:21.121Z,12.62
2022-10-01T22:24:51.132Z,12.51
2022-10-01T22:27:27.789Z,12.42
2022-10-01T22:30:18.589Z,12.39
2022-10-01T22:32:49.857Z,12.44
2022-10-01T22:35:38.893Z,12.32
2022-10-01T22:38:15.007Z,12.26
2022-10-01T22:40:51.546Z,12.35
2022-10-01T22:43:18.166Z,12.13
2022-10-01T22:46:03.522Z,12.36
2022-10-01T22:48:48.524Z,12.07
2022-10-01T22:51:45.837Z,12.06
2022-10-01T22:54:29.458Z,12.26
2022-10-01T22:56:59.184Z,12.29
2022-10-01T22:59:49.098Z,12.17
2022-10-01T23:02:28.881Z,12.05
2022-10-01T23:05:11.026Z,12.15
2022-10-01T23:08:09.130Z,12.20
2022-10-01T23:10:58.825Z,12.37
2022-10-01T23:13:42.444Z,12.43
2022-10-01T23:16:32.142Z,12.44
2022-10-01T23:19:11.912Z,12.35
2022-10-01T23:22:09.496Z,12.43
2022-10-01T23:25:06.057Z,12.12
2022-10-01T23:28:01.617Z,12.20
2022-10-01T23:30:43.570Z,12.18
2022-10-01T23:33:40.885Z,12.12
2022-10-01T23:36:35.487Z,12.34
2022-10-01T23:39:24.207Z,12.38
2022-10-01T23:42:20.049Z,12.18
2022-10-01T23:44:54.688Z,12.28
2022-10-01T23:47:30.421Z,12.13
2022-10-01T23:50:00.434Z,11.88
2022-10-01T23:52:47.304Z,12.22
2022-10-01T23:55:38.735Z,12.13
2022-10-01T23:58:11.057Z,11.89
